createdAt,value
2022-12-12T00:01:29.152Z,51.93
2022-12-12T00:03:56.642Z,52.27
2022-12-12T00:06:25.042Z,60.10
2022-12-12T00:08:53.288Z,53.00
2022-12-12T00:11:24.133Z,50.53
2022-12-12T00:13:54.652Z,57.30
2022-12-12T00:16:26.156Z,62.40
2022-12-12T00:18:53.969Z,55.20
2022-12-12T00:21:24.532Z,57.33
2022-12-12T00:23:51.964Z,57.73
2022-12-12T00:26:21.868Z,54.00
2022-12-12T00:28:49.332Z,55.73
2022-12-12T00:31:24.425Z,52.40
2022-12-12T00:33:51.814Z,60.90
2022-12-12T00:36:20.970Z,56.00
2022-12-12T00:38:51.656Z,57.43
2022-12-12T00:41:19.699Z,61.40
2022-12-12T00:43:47.228Z,65.13
2022-12-12T00:46:15.465Z,61.77
2022-12-12T00:48:44.643Z,62.40
2022-12-12T00:51:18.982Z,61.13
2022-12-12T00:53:46.789Z,64.73
2022-12-12T00:56:15.610Z,64.33
2022-12-12T00:58:43.315Z,67.60
2022-12-12T01:01:11.461Z,69.33
2022-12-12T01:03:40.650Z,63.10
2022-12-12T01:06:10.346Z,60.60
2022-12-12T01:08:38.225Z,72.80
2022-12-12T01:11:05.960Z,62.17
2022-12-12T01:13:33.435Z,71.90
2022-12-12T01:16:00.565Z,65.90
2022-12-12T01:18:28.263Z,68.57
2022-12-12T01:20:55.480Z,67.60
2022-12-12T01:23:24.425Z,58.20
2022-12-12T01:26:00.017Z,60.10
2022-12-12T01:28:27.498Z,63.60
2022-12-12T01:30:54.885Z,59.97
2022-12-12T01:33:22.403Z,63.87
2022-12-12T01:35:49.949Z,61.33
2022-12-12T01:38:17.522Z,59.37
2022-12-12T01:40:45.925Z,59.23
2022-12-12T01:43:14.106Z,64.20
2022-12-12T01:46:29.592Z,58.77
2022-12-12T01:49:00.687Z,66.40
2022-12-12T01:51:30.926Z,62.47
2022-12-12T01:54:02.999Z,66.83
2022-12-12T01:56:32.696Z,69.27
2022-12-12T01:59:01.320Z,71.00
2022-12-12T02:01:28.674Z,65.30
2022-12-12T02:03:56.605Z,68.70
2022-12-12T02:06:27.548Z,70.73
2022-12-12T02:08:58.143Z,67.67
2022-12-12T02:11:27.575Z,66.00
2022-12-12T02:13:56.885Z,70.17
2022-12-12T02:16:38.329Z,70.07
2022-12-12T02:19:27.176Z,68.03
2022-12-12T02:22:01.021Z,61.07
2022-12-12T02:24:51.952Z,66.93
2022-12-12T02:27:35.984Z,68.83
2022-12-12T02:30:16.764Z,73.53
2022-12-12T02:33:07.559Z,66.27
2022-12-12T02:36:03.661Z,64.67
2022-12-12T02:38:38.618Z,64.60
2022-12-12T02:41:15.841Z,66.77
2022-12-12T02:43:51.956Z,65.27
2022-12-12T02:46:25.817Z,74.67
2022-12-12T02:49:02.457Z,61.47
2022-12-12T02:51:32.399Z,71.30
2022-12-12T02:53:59.935Z,70.67
2022-12-12T02:56:49.810Z,71.73
2022-12-12T02:59:25.871Z,69.67
2022-12-12T03:02:38.458Z,69.27
2022-12-12T03:05:45.242Z,67.27
2022-12-12T03:08:29.361Z,74.47
2022-12-12T03:10:58.844Z,71.93
2022-12-12T03:13:32.435Z,73.53
2022-12-12T03:16:09.968Z,77.87
2022-12-12T03:18:43.961Z,81.60
2022-12-12T03:21:19.877Z,79.07
2022-12-12T03:23:51.275Z,83.77
2022-12-12T03:26:25.492Z,76.70
2022-12-12T03:28:58.478Z,87.43
2022-12-12T03:31:31.948Z,87.37
2022-12-12T03:34:03.095Z,77.63
2022-12-12T03:36:36.041Z,76.70
2022-12-12T03:39:06.747Z,83.07
2022-12-12T03:41:39.961Z,81.90
2022-12-12T03:44:14.451Z,85.70
2022-12-12T03:46:46.513Z,79.90
2022-12-12T03:49:18.299Z,86.63
2022-12-12T03:51:53.551Z,75.33
2022-12-12T03:54:26.071Z,79.03
2022-12-12T03:56:57.110Z,79.67
2022-12-12T03:59:29.335Z,81.97
2022-12-12T04:02:01.987Z,91.37
2022-12-12T04:04:34.587Z,83.40
2022-12-12T04:07:11.932Z,76.63
2022-12-12T04:09:57.914Z,77.67
2022-12-12T04:12:52.728Z,77.63
2022-12-12T04:15:39.732Z,73.73
2022-12-12T04:18:16.258Z,78.80
2022-12-12T04:21:09.619Z,79.83
2022-12-12T04:23:51.617Z,76.63
2022-12-12T04:26:39.158Z,78.57
2022-12-12T04:29:14.896Z,82.30
2022-12-12T04:31:49.004Z,79.17
2022-12-12T04:34:22.394Z,82.73
2022-12-12T04:36:50.537Z,82.27
2022-12-12T04:39:21.275Z,85.63
2022-12-12T04:41:51.104Z,79.07
2022-12-12T04:44:21.655Z,79.87
2022-12-12T04:46:52.035Z,83.87
2022-12-12T04:49:24.037Z,91.07
2022-12-12T04:51:55.945Z,81.57
2022-12-12T04:54:30.836Z,83.43
2022-12-12T04:57:02.161Z,84.90
2022-12-12T04:59:30.289Z,77.67
2022-12-12T05:02:02.606Z,77.77
2022-12-12T05:04:36.590Z,74.87
2022-12-12T05:07:09.576Z,84.70
2022-12-12T05:09:38.340Z,82.73
2022-12-12T05:12:06.307Z,78.30
2022-12-12T05:14:33.382Z,82.50
2022-12-12T05:17:07.161Z,80.53
2022-12-12T05:19:34.262Z,83.97
2022-12-12T05:22:01.625Z,85.33
2022-12-12T05:24:36.541Z,89.77
2022-12-12T05:27:07.516Z,82.13
2022-12-12T05:29:34.801Z,82.43
2022-12-12T05:32:02.354Z,84.70
2022-12-12T05:35:01.567Z,83.70
2022-12-12T05:37:36.988Z,79.40
2022-12-12T05:40:06.235Z,82.37
2022-12-12T05:42:55.872Z,72.60
2022-12-12T05:45:41.574Z,84.33
2022-12-12T05:48:32.056Z,77.63
2022-12-12T05:51:06.988Z,72.33
2022-12-12T05:53:42.177Z,72.17
2022-12-12T05:56:24.347Z,77.20
2022-12-12T05:59:02.424Z,73.13
2022-12-12T06:01:31.832Z,71.23
2022-12-12T06:04:09.449Z,79.80
2022-12-12T06:06:56.031Z,70.97
2022-12-12T06:09:31.401Z,68.90
2022-12-12T06:11:58.839Z,82.37
2022-12-12T06:14:39.903Z,69.57
2022-12-12T06:17:28.312Z,70.93
2022-12-12T06:20:06.079Z,74.53
2022-12-12T06:22:41.490Z,72.53
2022-12-12T06:25:09.606Z,73.73
2022-12-12T06:27:37.089Z,78.67
2022-12-12T06:30:07.030Z,76.40
2022-12-12T06:32:37.296Z,75.37
2022-12-12T06:35:05.137Z,79.40
2022-12-12T06:37:40.095Z,76.67
2022-12-12T06:40:15.845Z,67.93
2022-12-12T06:42:49.885Z,72.73
2022-12-12T06:45:22.363Z,75.00
2022-12-12T06:47:58.108Z,74.93
2022-12-12T06:50:30.757Z,73.50
2022-12-12T06:53:14.302Z,72.73
2022-12-12T06:55:59.212Z,68.73
2022-12-12T06:58:53.074Z,76.73
2022-12-12T07:01:54.396Z,70.60
2022-12-12T07:04:39.494Z,70.50
2022-12-12T07:07:16.253Z,80.63
2022-12-12T07:10:21.179Z,72.80
2022-12-12T07:13:27.446Z,72.10
2022-12-12T07:15:58.265Z,77.57
2022-12-12T07:18:49.937Z,64.60
2022-12-12T07:21:27.820Z,72.30
2022-12-12T07:24:09.982Z,78.57
2022-12-12T07:26:42.996Z,71.13
2022-12-12T07:29:20.740Z,76.87
2022-12-12T07:32:19.091Z,74.50
2022-12-12T07:35:11.644Z,71.30
2022-12-12T07:37:54.798Z,68.67
2022-12-12T07:41:09.637Z,71.10
2022-12-12T07:43:45.272Z,66.30
2022-12-12T07:46:29.259Z,70.87
2022-12-12T07:49:05.294Z,70.80
2022-12-12T07:51:45.657Z,74.53
2022-12-12T07:54:32.769Z,71.67
2022-12-12T07:57:04.626Z,68.47
2022-12-12T08:02:30.234Z,68.50
2022-12-12T08:04:57.676Z,73.03
2022-12-12T08:07:26.557Z,82.87
2022-12-12T08:09:54.082Z,69.63
2022-12-12T08:12:21.444Z,74.00
2022-12-12T08:14:49.004Z,77.00
2022-12-12T08:17:16.064Z,73.17
2022-12-12T08:19:43.033Z,68.43
2022-12-12T08:22:13.072Z,64.53
2022-12-12T08:24:47.806Z,68.93
2022-12-12T08:27:17.208Z,73.67
2022-12-12T08:29:44.594Z,62.57
2022-12-12T08:32:15.379Z,71.30
2022-12-12T08:34:44.713Z,65.47
2022-12-12T08:37:14.450Z,71.70
2022-12-12T08:39:48.415Z,75.60
2022-12-12T08:42:21.208Z,64.70
2022-12-12T08:45:03.424Z,69.53
2022-12-12T08:47:33.899Z,65.13
2022-12-12T08:50:03.432Z,73.33
2022-12-12T08:52:36.432Z,72.83
2022-12-12T08:55:12.524Z,60.47
2022-12-12T08:57:46.287Z,64.27
2022-12-12T09:00:19.097Z,65.20
2022-12-12T09:02:46.839Z,73.53
2022-12-12T09:05:26.260Z,67.20
2022-12-12T09:07:55.365Z,63.00
2022-12-12T09:10:23.942Z,72.47
2022-12-12T09:12:52.054Z,63.67
2022-12-12T09:15:19.485Z,67.23
2022-12-12T09:17:46.819Z,64.00
2022-12-12T09:20:14.374Z,60.60
2022-12-12T09:22:41.640Z,72.00
2022-12-12T09:25:10.667Z,72.13
2022-12-12T09:27:40.320Z,62.20
2022-12-12T09:30:08.807Z,60.07
2022-12-12T09:32:36.272Z,71.97
2022-12-12T09:35:03.809Z,75.10
2022-12-12T09:37:31.601Z,59.73
2022-12-12T09:40:00.840Z,67.07
2022-12-12T09:42:32.363Z,58.57
2022-12-12T09:45:06.690Z,65.27
2022-12-12T09:47:39.030Z,61.97
2022-12-12T09:50:18.768Z,58.37
2022-12-12T09:52:48.378Z,62.80
2022-12-12T09:55:32.929Z,62.00
2022-12-12T09:58:06.002Z,60.27
2022-12-12T10:00:40.926Z,65.83
2022-12-12T10:03:32.547Z,56.57
2022-12-12T10:06:36.686Z,58.03
2022-12-12T10:09:22.293Z,58.57
2022-12-12T10:11:51.032Z,56.50
2022-12-12T10:14:24.107Z,66.13
2022-12-12T10:16:57.718Z,61.03
2022-12-12T10:19:31.409Z,60.37
2022-12-12T10:22:07.478Z,61.47
2022-12-12T10:24:40.238Z,63.20
2022-12-12T10:27:15.158Z,65.77
2022-12-12T10:29:46.598Z,59.53
2022-12-12T10:32:28.521Z,55.97
2022-12-12T10:35:14.952Z,66.87
2022-12-12T10:37:55.348Z,63.40
2022-12-12T10:40:36.468Z,63.13
2022-12-12T10:43:10.114Z,68.23
2022-12-12T10:46:07.528Z,61.30
2022-12-12T10:48:36.615Z,59.83
2022-12-12T10:51:07.098Z,70.93
2022-12-12T10:53:35.356Z,61.77
2022-12-12T10:56:08.741Z,57.87
2022-12-12T10:58:38.547Z,64.40
2022-12-12T11:01:12.934Z,66.83
2022-12-12T11:03:46.849Z,65.67
2022-12-12T11:06:18.018Z,59.80
2022-12-12T11:08:54.647Z,62.80
2022-12-12T11:11:25.577Z,64.13
2022-12-12T11:13:54.708Z,64.80
2022-12-12T11:16:24.853Z,58.90
2022-12-12T11:19:05.729Z,60.27
2022-12-12T11:21:35.532Z,62.90
2022-12-12T11:24:08.371Z,58.63
2022-12-12T11:26:44.462Z,57.60
2022-12-12T11:29:27.490Z,58.40
2022-12-12T11:32:02.268Z,56.43
2022-12-12T11:34:58.756Z,52.63
2022-12-12T11:37:48.251Z,55.53
2022-12-12T11:40:24.685Z,55.23
2022-12-12T11:43:26.443Z,51.03
2022-12-12T11:46:04.625Z,51.33
2022-12-12T11:48:43.555Z,47.93
2022-12-12T11:51:30.536Z,55.80
2022-12-12T11:54:08.793Z,55.07
2022-12-12T11:57:09.297Z,59.70
2022-12-12T12:00:16.089Z,46.07
2022-12-12T12:03:21.821Z,48.67
2022-12-12T12:06:10.260Z,47.70
2022-12-12T12:08:50.200Z,50.43
2022-12-12T12:11:25.174Z,46.27
2022-12-12T12:14:15.172Z,49.10
2022-12-12T12:17:10.176Z,47.27
2022-12-12T12:20:03.419Z,44.77
2022-12-12T12:22:50.296Z,43.00
2022-12-12T12:25:43.449Z,41.77
2022-12-12T12:28:58.601Z,54.17
2022-12-12T12:31:59.108Z,47.27
2022-12-12T12:34:56.740Z,46.27
2022-12-12T12:37:45.461Z,43.73
2022-12-12T12:40:39.608Z,53.57
2022-12-12T12:43:24.956Z,47.70
2022-12-12T12:46:02.207Z,47.10
2022-12-12T12:48:36.316Z,47.20
2022-12-12T12:51:32.683Z,43.67
2022-12-12T12:54:06.679Z,47.53
2022-12-12T12:56:46.157Z,52.83
2022-12-12T12:59:18.488Z,49.70
2022-12-12T13:01:55.226Z,48.77
2022-12-12T13:04:31.543Z,47.47
2022-12-12T13:07:03.247Z,42.13
2022-12-12T13:09:39.915Z,49.63
2022-12-12T13:12:14.628Z,46.30
2022-12-12T13:14:45.842Z,47.53
2022-12-12T13:17:19.327Z,48.73
2022-12-12T13:19:49.854Z,49.20
2022-12-12T13:22:23.818Z,48.97
2022-12-12T13:25:00.175Z,47.80
2022-12-12T13:27:35.074Z,46.63
2022-12-12T13:30:04.961Z,51.30
2022-12-12T13:32:56.246Z,46.20
2022-12-12T13:35:27.799Z,51.47
2022-12-12T13:37:56.097Z,46.37
2022-12-12T13:40:27.762Z,49.97
2022-12-12T13:43:05.502Z,53.30
2022-12-12T13:45:43.030Z,53.00
2022-12-12T13:48:47.128Z,44.13
2022-12-12T13:51:47.871Z,42.10
2022-12-12T13:54:43.188Z,49.97
2022-12-12T13:57:21.488Z,47.63
2022-12-12T14:00:23.674Z,50.90
2022-12-12T14:03:02.072Z,53.70
2022-12-12T14:05:32.884Z,57.70
2022-12-12T14:08:08.264Z,53.07
2022-12-12T14:10:37.939Z,62.60
2022-12-12T14:13:25.236Z,60.43
2022-12-12T14:16:06.757Z,49.33
2022-12-12T14:18:38.309Z,47.43
2022-12-12T14:21:08.878Z,52.50
2022-12-12T14:23:37.152Z,55.43
2022-12-12T14:26:37.900Z,50.17
2022-12-12T14:29:26.390Z,51.73
2022-12-12T14:32:06.075Z,54.37
2022-12-12T14:34:43.386Z,49.63
2022-12-12T14:37:31.282Z,53.27
2022-12-12T14:40:05.006Z,52.93
2022-12-12T14:43:19.678Z,50.97
2022-12-12T14:45:31.307Z,54.07
2022-12-12T14:48:15.935Z,53.37
2022-12-12T14:50:47.868Z,51.93
2022-12-12T14:53:18.657Z,55.00
2022-12-12T14:55:56.079Z,60.17
2022-12-12T14:58:29.542Z,53.27
2022-12-12T15:00:59.070Z,54.77
2022-12-12T15:03:32.175Z,57.10
2022-12-12T15:06:26.346Z,60.27
2022-12-12T15:08:55.109Z,58.47
2022-12-12T15:11:24.874Z,62.90
2022-12-12T15:13:54.390Z,61.00
2022-12-12T15:16:28.144Z,60.30
2022-12-12T15:18:59.198Z,67.33
2022-12-12T15:21:26.497Z,61.23
2022-12-12T15:23:54.035Z,62.97
2022-12-12T15:26:26.275Z,63.83
2022-12-12T15:28:53.481Z,59.10
2022-12-12T15:31:21.030Z,55.93
2022-12-12T15:33:49.606Z,60.77
2022-12-12T15:36:23.931Z,63.67
2022-12-12T15:39:13.836Z,64.83
2022-12-12T15:41:41.485Z,60.13
2022-12-12T15:44:15.693Z,61.07
2022-12-12T15:46:43.136Z,60.07
2022-12-12T15:49:35.629Z,65.40
2022-12-12T15:52:18.609Z,56.47
2022-12-12T15:54:48.211Z,61.63
2022-12-12T15:57:21.942Z,88.43
2022-12-12T15:59:55.222Z,108.70
2022-12-12T16:02:27.053Z,87.63
2022-12-12T16:05:06.105Z,73.37
2022-12-12T16:07:37.668Z,108.33
2022-12-12T16:10:22.422Z,98.90
2022-12-12T16:13:00.593Z,109.97
2022-12-12T16:15:34.158Z,94.47
2022-12-12T16:18:07.272Z,92.47
2022-12-12T16:20:34.594Z,105.17
2022-12-12T16:23:22.795Z,105.07
2022-12-12T16:25:50.424Z,76.83
2022-12-12T16:28:25.343Z,73.40
2022-12-12T16:30:56.666Z,73.77
2022-12-12T16:33:28.088Z,87.30
2022-12-12T16:35:55.283Z,73.33
2022-12-12T16:38:24.251Z,76.73
2022-12-12T16:40:54.368Z,75.03
2022-12-12T16:43:24.102Z,73.00
2022-12-12T16:45:53.009Z,78.10
2022-12-12T16:48:22.084Z,79.13
2022-12-12T16:50:50.866Z,72.10
2022-12-12T16:53:18.205Z,75.37
2022-12-12T16:55:49.016Z,81.60
2022-12-12T16:58:16.792Z,72.97
2022-12-12T17:00:45.207Z,74.87
2022-12-12T17:03:14.312Z,80.23
2022-12-12T17:05:42.051Z,75.57
2022-12-12T17:08:09.274Z,72.43
2022-12-12T17:10:37.097Z,78.07
2022-12-12T17:13:07.094Z,71.43
2022-12-12T17:15:35.179Z,68.43
2022-12-12T17:18:02.218Z,72.20
2022-12-12T17:20:37.589Z,66.57
2022-12-12T17:25:50.417Z,60.90
2022-12-12T17:28:20.508Z,59.70
2022-12-12T17:30:53.031Z,68.93
2022-12-12T17:33:19.930Z,76.63
2022-12-12T17:35:56.723Z,78.53
2022-12-12T17:38:23.665Z,97.97
2022-12-12T17:40:53.836Z,75.37
2022-12-12T17:43:22.765Z,72.00
2022-12-12T17:45:58.150Z,72.23
2022-12-12T17:48:28.072Z,67.97
2022-12-12T17:50:59.581Z,70.00
2022-12-12T17:53:26.762Z,73.17
2022-12-12T17:56:01.373Z,76.23
2022-12-12T17:58:37.234Z,70.40
2022-12-12T18:01:09.980Z,74.93
2022-12-12T18:03:37.277Z,76.47
2022-12-12T18:06:05.299Z,75.00
2022-12-12T18:08:32.296Z,79.77
2022-12-12T18:10:59.516Z,78.60
2022-12-12T18:13:26.816Z,72.83
2022-12-12T18:15:55.663Z,80.87
2022-12-12T18:18:23.057Z,78.97
2022-12-12T18:20:50.575Z,77.50
2022-12-12T18:23:17.474Z,81.77
2022-12-12T18:25:44.670Z,84.47
2022-12-12T18:28:12.409Z,109.07
2022-12-12T18:30:40.214Z,83.70
2022-12-12T18:33:08.998Z,88.57
2022-12-12T18:35:36.221Z,81.47
2022-12-12T18:38:03.471Z,94.97
2022-12-12T18:40:30.488Z,91.87
2022-12-12T18:42:57.932Z,87.83
2022-12-12T18:45:24.783Z,94.43
2022-12-12T18:47:51.691Z,83.90
2022-12-12T18:50:19.990Z,79.67
2022-12-12T18:52:47.852Z,85.87
2022-12-12T18:55:14.788Z,81.70
2022-12-12T18:57:41.957Z,90.00
2022-12-12T19:00:10.173Z,79.13
2022-12-12T19:02:38.832Z,74.83
2022-12-12T19:05:06.873Z,85.97
2022-12-12T19:07:35.478Z,73.63
2022-12-12T19:10:02.343Z,82.90
2022-12-12T19:12:29.353Z,75.30
2022-12-12T19:17:43.553Z,77.37
2022-12-12T19:20:12.701Z,63.63
2022-12-12T19:22:45.871Z,71.53
2022-12-12T19:25:14.806Z,69.77
2022-12-12T19:27:42.249Z,75.47
2022-12-12T19:30:10.926Z,77.23
2022-12-12T19:32:37.984Z,69.00
2022-12-12T19:35:05.600Z,74.63
2022-12-12T19:37:32.463Z,71.77
2022-12-12T19:40:00.810Z,70.10
2022-12-12T19:42:28.498Z,71.57
2022-12-12T19:44:55.733Z,71.27
2022-12-12T19:47:22.701Z,72.83
2022-12-12T19:49:49.912Z,73.77
2022-12-12T19:52:16.870Z,71.17
2022-12-12T19:54:43.785Z,76.43
2022-12-12T19:57:12.017Z,74.33
2022-12-12T19:59:39.445Z,82.47
2022-12-12T20:02:07.076Z,76.67
2022-12-12T20:04:34.052Z,78.50
2022-12-12T20:07:00.925Z,82.23
2022-12-12T20:09:29.768Z,81.67
2022-12-12T20:11:59.371Z,88.13
2022-12-12T20:14:30.602Z,83.30
2022-12-12T20:16:58.122Z,75.37
2022-12-12T20:19:29.464Z,76.97
2022-12-12T20:22:01.631Z,79.00
2022-12-12T20:24:29.734Z,79.13
2022-12-12T20:26:57.346Z,78.47
2022-12-12T20:29:24.552Z,83.20
2022-12-12T20:31:52.890Z,76.47
2022-12-12T20:34:25.259Z,78.97
2022-12-12T20:36:55.034Z,71.90
2022-12-12T20:39:22.841Z,77.10
2022-12-12T20:41:50.683Z,74.33
2022-12-12T20:44:18.171Z,74.20
2022-12-12T20:46:46.964Z,72.20
2022-12-12T20:49:18.062Z,76.27
2022-12-12T20:52:00.698Z,75.63
2022-12-12T20:54:29.091Z,72.10
2022-12-12T20:56:57.440Z,68.90
2022-12-12T20:59:25.311Z,66.77
2022-12-12T21:01:52.822Z,69.10
2022-12-12T21:04:21.759Z,78.40
2022-12-12T21:06:49.641Z,72.30
2022-12-12T21:09:23.713Z,75.27
2022-12-12T21:11:53.061Z,72.87
2022-12-12T21:14:20.210Z,74.67
2022-12-12T21:16:47.401Z,75.60
2022-12-12T21:19:14.954Z,79.17
2022-12-12T21:21:43.783Z,71.83
2022-12-12T21:24:12.110Z,70.13
2022-12-12T21:26:39.359Z,67.33
2022-12-12T21:29:06.877Z,68.83
2022-12-12T21:31:36.556Z,78.27
2022-12-12T21:34:04.986Z,76.43
2022-12-12T21:36:33.261Z,66.60
2022-12-12T21:39:03.023Z,66.27
2022-12-12T21:41:30.449Z,66.27
2022-12-12T21:43:59.612Z,69.03
2022-12-12T21:46:28.544Z,62.53
2022-12-12T21:49:15.351Z,67.73
2022-12-12T21:51:43.255Z,62.97
2022-12-12T21:54:13.995Z,65.53
2022-12-12T21:56:41.690Z,68.13
2022-12-12T21:59:10.206Z,65.23
2022-12-12T22:01:37.439Z,65.83
2022-12-12T22:04:04.948Z,57.63
2022-12-12T22:06:33.560Z,46.77
2022-12-12T22:09:03.024Z,55.93
2022-12-12T22:11:40.357Z,48.93
2022-12-12T22:14:17.510Z,50.40
2022-12-12T22:16:44.752Z,51.63
2022-12-12T22:19:14.517Z,56.30
2022-12-12T22:21:44.209Z,57.10
2022-12-12T22:24:11.572Z,57.00
2022-12-12T22:26:42.017Z,60.57
2022-12-12T22:29:11.767Z,46.90
2022-12-12T22:31:40.586Z,43.67
2022-12-12T22:34:12.306Z,43.97
2022-12-12T22:36:40.358Z,44.90
2022-12-12T22:39:12.614Z,46.77
2022-12-12T22:41:40.881Z,45.77
2022-12-12T22:44:08.283Z,48.53
2022-12-12T22:46:39.229Z,49.63
2022-12-12T22:49:12.030Z,48.90
2022-12-12T22:51:39.036Z,45.40
2022-12-12T22:54:06.737Z,47.27
2022-12-12T22:56:35.719Z,55.97
2022-12-12T22:59:05.756Z,72.80
2022-12-12T23:01:32.957Z,47.20
2022-12-12T23:04:00.596Z,47.13
2022-12-12T23:06:30.511Z,48.67
2022-12-12T23:09:01.060Z,45.87
2022-12-12T23:11:29.834Z,51.47
2022-12-12T23:13:59.815Z,48.07
2022-12-12T23:16:30.624Z,40.60
2022-12-12T23:18:58.561Z,45.73
2022-12-12T23:21:26.492Z,43.17
2022-12-12T23:23:55.525Z,40.37
2022-12-12T23:26:24.114Z,42.67
2022-12-12T23:28:51.228Z,38.60
2022-12-12T23:31:22.353Z,39.73
2022-12-12T23:33:53.688Z,43.37
2022-12-12T23:36:21.335Z,45.17
2022-12-12T23:38:48.195Z,39.17
2022-12-12T23:41:16.553Z,36.77
2022-12-12T23:43:43.596Z,42.63
2022-12-12T23:46:29.037Z,41.20
2022-12-12T23:48:59.514Z,39.10
2022-12-12T23:51:28.751Z,41.33
2022-12-12T23:53:56.957Z,43.53
2022-12-12T23:56:24.376Z,42.97
2022-12-12T23:58:52.199Z,39.07
